San Bernard — WDF9089 — position and weather

sailwx.info

Track history (hours):
 
Tides and Currents Weather Stations Pressure Air Temp Water Temp Dewpoint Dewpoint Depression Visibility Wind Speed Wind Dir Waves Ship Positions

San Bernard

Owner: Higman Barge Lines, Inc, Orange, TX. More information available from US FCC via Universal Licensing System and Coast Guard Vessel Documentation Center.

Last reported at 2017-Nov-23 18:31 UTC. Time now 2017-Nov-23 18:43 UTC.
Position N 30°05' W 093°20'.

Length 24 m; draft 3 m.

Type: Towing. MMSI: 367501660.

Date/timePositionNaut miles runAvg speedWind from/ knotsBaromVisibWave heightAir tempDewpointWater temp
2017-Nov-23 18:31N 30°05' W 093°20'1 1.7
2017-Nov-23 18:00N 30°06' W 093°20'1 2.4
2017-Nov-23 17:30N 30°05' W 093°20'1 2.5
2017-Nov-23 17:00N 30°04' W 093°21'1 2.6
2017-Nov-23 16:30N 30°04' W 093°23'2 3.5
2017-Nov-23 16:00N 30°04' W 093°25'2 3.6
2017-Nov-23 15:31N 30°04' W 093°27'2 4.4
2017-Nov-23 15:00N 30°04' W 093°29'3 5.3
2017-Nov-23 14:30N 30°04' W 093°32'3 5.2
2017-Nov-23 14:00N 30°04' W 093°35'3 5.6
2017-Nov-23 13:30N 30°04' W 093°39'4 5.9
2017-Nov-23 12:54N 30°03' W 093°43'69 4.5
2017-Nov-22 21:42N 29°29' W 094°51'2 7.4
2017-Nov-22 21:29N 29°30' W 094°52'3 7.3
2017-Nov-22 21:00N 29°33' W 094°55'4 7.1
2017-Nov-22 20:31N 29°36' W 094°57'4 7.4
2017-Nov-22 19:55N 29°40' W 094°59'3 6.7
2017-Nov-22 19:30N 29°42' W 095°01'  
2017-Nov-20 00:27N 29°47' W 095°05'0 0.3
2017-Nov-19 23:40N 29°46' W 095°05'4 0.3
2017-Nov-19 13:20N 29°44' W 095°08'4 1.2
2017-Nov-19 10:28N 29°46' W 095°05'0 0.1
2017-Nov-19 09:54N 29°46' W 095°05'6 2.7
2017-Nov-19 07:37N 29°45' W 095°11'1 5.9
2017-Nov-19 07:30N 29°45' W 095°11'3 0.2
2017-Nov-18 15:20N 29°44' W 095°07'1 0.1
2017-Nov-18 02:36N 29°45' W 095°06'0 0.1
2017-Nov-17 23:29N 29°45' W 095°06'1 0.2
2017-Nov-17 16:29N 29°44' W 095°08'1 1.4
2017-Nov-17 15:34N 29°45' W 095°07'0 0.0
2017-Nov-17 15:27N 29°45' W 095°07'1 0.4
2017-Nov-17 12:10N 29°44' W 095°08'0 0.0
2017-Nov-17 10:05N 29°44' W 095°08'0 0.0
2017-Nov-17 10:00N 29°44' W 095°08'0 0.0
2017-Nov-17 09:22N 29°44' W 095°08'0 0.0
2017-Nov-17 08:55N 29°44' W 095°08'0 0.0
2017-Nov-17 08:30N 29°44' W 095°08'0 0.0
2017-Nov-17 07:59N 29°44' W 095°08'0 0.0
2017-Nov-17 07:30N 29°44' W 095°08'0 0.0
2017-Nov-17 06:59N 29°44' W 095°08'0 0.0
2017-Nov-17 06:28N 29°44' W 095°08'0 0.0
2017-Nov-17 06:00N 29°44' W 095°08'0 0.0
2017-Nov-17 05:29N 29°44' W 095°08'0 0.0
2017-Nov-17 04:59N 29°44' W 095°08'0 0.0
2017-Nov-17 04:28N 29°44' W 095°08'0 0.0
2017-Nov-17 04:00N 29°44' W 095°08'0 0.0
2017-Nov-17 03:30N 29°44' W 095°08'0 0.0
2017-Nov-17 02:55N 29°44' W 095°08'0 0.0
2017-Nov-17 02:29N 29°44' W 095°08'0 0.0
2017-Nov-17 01:21N 29°44' W 095°08'0 0.0
2017-Nov-17 00:58N 29°44' W 095°08'0 0.0
2017-Nov-17 00:30N 29°44' W 095°08'0 0.0
2017-Nov-16 23:58N 29°44' W 095°08'0 0.3
2017-Nov-16 23:24N 29°44' W 095°08'2 0.1
2017-Nov-15 21:10N 29°45' W 095°06'2 7.1
2017-Nov-15 20:55N 29°44' W 095°08'1 1.6
2017-Nov-15 19:59N 29°45' W 095°07'  
Track history (hours):
 
Tides and Currents Weather Stations Pressure Air Temp Water Temp Dewpoint Dewpoint Depression Visibility Wind Speed Wind Dir Waves Ship Positions

San Bernard

Owner: Higman Barge Lines, Inc, Orange, TX. More information available from US FCC via Universal Licensing System and Coast Guard Vessel Documentation Center.

Last reported at 2017-Nov-23 18:31 UTC. Time now 2017-Nov-23 18:43 UTC.
Position N 30°05' W 093°20'.

Length 24 m; draft 3 m.

Type: Towing. MMSI: 367501660.

Date/timePositionNaut miles runAvg speedWind from/ knotsBaromVisibWave heightAir tempDewpointWater temp
2017-Nov-23 18:31N 30°05' W 093°20'1 1.7
2017-Nov-23 18:00N 30°06' W 093°20'1 2.4
2017-Nov-23 17:30N 30°05' W 093°20'1 2.5
2017-Nov-23 17:00N 30°04' W 093°21'1 2.6
2017-Nov-23 16:30N 30°04' W 093°23'2 3.5
2017-Nov-23 16:00N 30°04' W 093°25'2 3.6
2017-Nov-23 15:31N 30°04' W 093°27'2 4.4
2017-Nov-23 15:00N 30°04' W 093°29'3 5.3
2017-Nov-23 14:30N 30°04' W 093°32'3 5.2
2017-Nov-23 14:00N 30°04' W 093°35'3 5.6
2017-Nov-23 13:30N 30°04' W 093°39'4 5.9
2017-Nov-23 12:54N 30°03' W 093°43'69 4.5
2017-Nov-22 21:42N 29°29' W 094°51'2 7.4
2017-Nov-22 21:29N 29°30' W 094°52'3 7.3
2017-Nov-22 21:00N 29°33' W 094°55'4 7.1
2017-Nov-22 20:31N 29°36' W 094°57'4 7.4
2017-Nov-22 19:55N 29°40' W 094°59'3 6.7
2017-Nov-22 19:30N 29°42' W 095°01'  
2017-Nov-20 00:27N 29°47' W 095°05'0 0.3
2017-Nov-19 23:40N 29°46' W 095°05'4 0.3
2017-Nov-19 13:20N 29°44' W 095°08'4 1.2
2017-Nov-19 10:28N 29°46' W 095°05'0 0.1
2017-Nov-19 09:54N 29°46' W 095°05'6 2.7
2017-Nov-19 07:37N 29°45' W 095°11'1 5.9
2017-Nov-19 07:30N 29°45' W 095°11'3 0.2
2017-Nov-18 15:20N 29°44' W 095°07'1 0.1
2017-Nov-18 02:36N 29°45' W 095°06'0 0.1
2017-Nov-17 23:29N 29°45' W 095°06'1 0.2
2017-Nov-17 16:29N 29°44' W 095°08'1 1.4
2017-Nov-17 15:34N 29°45' W 095°07'0 0.0
2017-Nov-17 15:27N 29°45' W 095°07'1 0.4
2017-Nov-17 12:10N 29°44' W 095°08'0 0.0
2017-Nov-17 10:05N 29°44' W 095°08'0 0.0
2017-Nov-17 10:00N 29°44' W 095°08'0 0.0
2017-Nov-17 09:22N 29°44' W 095°08'0 0.0
2017-Nov-17 08:55N 29°44' W 095°08'0 0.0
2017-Nov-17 08:30N 29°44' W 095°08'0 0.0
2017-Nov-17 07:59N 29°44' W 095°08'0 0.0
2017-Nov-17 07:30N 29°44' W 095°08'0 0.0
2017-Nov-17 06:59N 29°44' W 095°08'0 0.0
2017-Nov-17 06:28N 29°44' W 095°08'0 0.0
2017-Nov-17 06:00N 29°44' W 095°08'0 0.0
2017-Nov-17 05:29N 29°44' W 095°08'0 0.0
2017-Nov-17 04:59N 29°44' W 095°08'0 0.0
2017-Nov-17 04:28N 29°44' W 095°08'0 0.0
2017-Nov-17 04:00N 29°44' W 095°08'0 0.0
2017-Nov-17 03:30N 29°44' W 095°08'0 0.0
2017-Nov-17 02:55N 29°44' W 095°08'0 0.0
2017-Nov-17 02:29N 29°44' W 095°08'0 0.0
2017-Nov-17 01:21N 29°44' W 095°08'0 0.0
2017-Nov-17 00:58N 29°44' W 095°08'0 0.0
2017-Nov-17 00:30N 29°44' W 095°08'0 0.0
2017-Nov-16 23:58N 29°44' W 095°08'0 0.3
2017-Nov-16 23:24N 29°44' W 095°08'2 0.1
2017-Nov-15 21:10N 29°45' W 095°06'2 7.1
2017-Nov-15 20:55N 29°44' W 095°08'1 1.6
2017-Nov-15 19:59N 29°45' W 095°07'  

Dump ship's entire track history